Time,TemperatureF,DewpointF,PressureIn,WindDirection,WindDirectionDegrees,WindSpeedMPH,WindSpeedGustMPH,Humidity,HourlyPrecipIn,Conditions,Clouds,dailyrainin,SoftwareType,DateUTC
2013-02-12 00:11:00,68.1,67.0,30.12,South,180,2.0,6.0,96,0.00,,,0.00,weatherlink.com 1.10,2013-02-12 05:11:00,
2013-02-12 00:26:00,68.1,67.0,30.12,South,172,2.0,8.0,96,0.00,,,0.00,weatherlink.com 1.10,2013-02-12 05:26:00,
2013-02-12 00:41:00,68.2,67.0,30.12,SW,231,1.0,8.0,96,0.00,,,0.00,weatherlink.com 1.10,2013-02-12 05:41:00,
2013-02-12 00:56:00,68.2,67.0,30.11,SW,229,0.0,8.0,96,0.00,,,0.00,weatherlink.com 1.10,2013-02-12 05:56:00,
2013-02-12 01:11:00,68.2,67.0,30.11,SSW,192,4.0,9.0,96,0.00,,,0.00,weatherlink.com 1.10,2013-02-12 06:11:00,
2013-02-12 01:26:00,68.2,67.0,30.12,WSW,247,1.0,7.0,96,0.00,,,0.00,weatherlink.com 1.10,2013-02-12 06:26:00,
2013-02-12 01:41:00,68.0,67.0,30.12,SSW,201,1.0,4.0,96,0.00,,,0.00,weatherlink.com 1.10,2013-02-12 06:41:00,
2013-02-12 01:56:00,67.9,67.0,30.11,SW,221,3.0,6.0,96,0.00,,,0.00,weatherlink.com 1.10,2013-02-12 06:56:00,
2013-02-12 02:11:00,67.8,67.0,30.11,West,274,2.0,6.0,97,0.00,,,0.00,weatherlink.com 1.10,2013-02-12 07:11:00,
2013-02-12 02:26:00,67.6,67.0,30.10,SSE,149,4.0,6.0,97,0.00,,,0.00,weatherlink.com 1.10,2013-02-12 07:26:00,
2013-02-12 02:41:00,67.4,67.0,30.09,SW,217,5.0,7.0,97,0.00,,,0.00,weatherlink.com 1.10,2013-02-12 07:41:00,
2013-02-12 02:56:00,67.4,67.0,30.09,South,174,3.0,9.0,98,0.00,,,0.00,weatherlink.com 1.10,2013-02-12 07:56:00,
2013-02-12 03:11:00,67.3,67.0,30.09,SW,231,1.0,5.0,98,0.00,,,0.00,weatherlink.com 1.10,2013-02-12 08:11:00,
2013-02-12 03:26:00,67.3,67.0,30.09,SW,226,2.0,5.0,98,0.00,,,0.00,weatherlink.com 1.10,2013-02-12 08:26:00,
2013-02-12 03:41:00,67.2,67.0,30.09,WSW,238,1.0,6.0,98,0.00,,,0.00,weatherlink.com 1.10,2013-02-12 08:41:00,
2013-02-12 03:56:00,67.2,67.0,30.08,SW,220,3.0,7.0,98,0.00,,,0.00,weatherlink.com 1.10,2013-02-12 08:56:00,
2013-02-12 04:11:00,67.1,67.0,30.08,SW,214,2.0,5.0,98,0.00,,,0.00,weatherlink.com 1.10,2013-02-12 09:11:00,
2013-02-12 04:26:00,67.0,67.0,30.08,SSE,155,2.0,5.0,99,0.00,,,0.00,weatherlink.com 1.10,2013-02-12 09:26:00,
2013-02-12 04:41:00,66.9,67.0,30.08,South,175,5.0,5.0,99,0.00,,,0.00,weatherlink.com 1.10,2013-02-12 09:41:00,
2013-02-12 04:56:00,67.0,67.0,30.08,SSE,153,3.0,6.0,99,0.00,,,0.00,weatherlink.com 1.10,2013-02-12 09:56:00,
2013-02-12 05:11:00,67.0,67.0,30.08,SW,231,0.0,7.0,99,0.00,,,0.00,weatherlink.com 1.10,2013-02-12 10:11:00,
2013-02-12 05:26:00,66.9,67.0,30.08,WSW,240,0.0,4.0,99,0.00,,,0.00,weatherlink.com 1.10,2013-02-12 10:26:00,
2013-02-12 05:42:00,66.9,67.0,30.08,South,191,1.0,5.0,99,0.00,,,0.00,weatherlink.com 1.10,2013-02-12 10:42:00,
2013-02-12 05:57:00,66.9,67.0,30.08,SSW,195,1.0,5.0,99,0.00,,,0.00,weatherlink.com 1.10,2013-02-12 10:57:00,
2013-02-12 06:14:00,67.3,67.0,30.08,SSW,196,1.0,7.0,100,0.00,,,0.00,weatherlink.com 1.10,2013-02-12 11:14:00,
2013-02-12 06:26:00,67.5,67.0,30.09,SSE,168,2.0,6.0,99,0.00,,,0.00,weatherlink.com 1.10,2013-02-12 11:26:00,
2013-02-12 06:41:00,67.5,67.0,30.09,SW,229,1.0,5.0,99,0.00,,,0.00,weatherlink.com 1.10,2013-02-12 11:41:00,
2013-02-12 06:56:00,67.6,67.0,30.10,SE,136,4.0,5.0,99,0.00,,,0.00,weatherlink.com 1.10,2013-02-12 11:56:00,
2013-02-12 07:11:00,67.7,67.0,30.10,SSE,165,2.0,5.0,99,0.00,,,0.00,weatherlink.com 1.10,2013-02-12 12:11:00,
2013-02-12 07:26:00,67.9,68.0,30.11,South,191,4.0,9.0,99,0.00,,,0.00,weatherlink.com 1.10,2013-02-12 12:26:00,
2013-02-12 07:42:00,68.1,68.0,30.11,East,86,2.0,6.0,99,0.00,,,0.00,weatherlink.com 1.10,2013-02-12 12:42:00,
2013-02-12 07:57:00,68.5,68.0,30.11,SSW,200,2.0,7.0,99,0.00,,,0.00,weatherlink.com 1.10,2013-02-12 12:57:00,
2013-02-12 08:11:00,68.8,69.0,30.11,SW,218,2.0,8.0,99,0.00,,,0.00,weatherlink.com 1.10,2013-02-12 13:11:00,
2013-02-12 08:29:00,69.1,69.0,30.12,SW,222,2.0,7.0,98,0.00,,,0.00,weatherlink.com 1.10,2013-02-12 13:29:00,
2013-02-12 08:41:00,69.4,69.0,30.12,SW,227,1.0,8.0,98,0.00,,,0.00,weatherlink.com 1.10,2013-02-12 13:41:00,
2013-02-12 08:57:00,70.0,69.0,30.12,SSE,157,2.0,9.0,97,0.00,,,0.00,weatherlink.com 1.10,2013-02-12 13:57:00,
2013-02-12 09:12:00,70.3,69.0,30.12,SW,223,4.0,9.0,96,0.00,,,0.00,weatherlink.com 1.10,2013-02-12 14:12:00,
2013-02-12 09:27:00,71.4,70.0,30.12,SSE,166,5.0,12.0,94,0.00,,,0.00,weatherlink.com 1.10,2013-02-12 14:27:00,
2013-02-12 09:42:00,71.5,69.0,30.13,SE,141,4.0,10.0,93,0.00,,,0.00,weatherlink.com 1.10,2013-02-12 14:42:00,
2013-02-12 09:57:00,72.2,70.0,30.13,SE,136,7.0,9.0,93,0.00,,,0.00,weatherlink.com 1.10,2013-02-12 14:57:00,
2013-02-12 10:12:00,73.4,70.0,30.13,SW,223,5.0,9.0,90,0.00,,,0.00,weatherlink.com 1.10,2013-02-12 15:12:00,
2013-02-12 10:27:00,73.7,70.0,30.12,SW,228,1.0,10.0,89,0.00,,,0.00,weatherlink.com 1.10,2013-02-12 15:27:00,
2013-02-12 10:42:00,74.2,71.0,30.12,SE,127,5.0,10.0,88,0.00,,,0.00,weatherlink.com 1.10,2013-02-12 15:42:00,
2013-02-12 10:57:00,74.9,71.0,30.13,SE,143,8.0,12.0,87,0.00,,,0.00,weatherlink.com 1.10,2013-02-12 15:57:00,
2013-02-12 11:12:00,75.0,71.0,30.13,SW,227,4.0,10.0,87,0.00,,,0.00,weatherlink.com 1.10,2013-02-12 16:12:00,
2013-02-12 11:27:00,74.3,70.0,30.12,SW,218,6.0,13.0,87,0.00,,,0.00,weatherlink.com 1.10,2013-02-12 16:27:00,
2013-02-12 11:42:00,74.4,70.0,30.12,SSW,210,3.0,14.0,87,0.00,,,0.00,weatherlink.com 1.10,2013-02-12 16:42:00,
2013-02-12 11:57:00,74.7,70.0,30.11,South,181,0.0,12.0,86,0.00,,,0.00,weatherlink.com 1.10,2013-02-12 16:57:00,
2013-02-12 12:12:00,75.8,71.0,30.10,SW,227,7.0,12.0,85,0.00,,,0.00,weatherlink.com 1.10,2013-02-12 17:12:00,
2013-02-12 12:27:00,76.8,71.0,30.09,SSW,210,3.0,10.0,82,0.00,,,0.00,weatherlink.com 1.10,2013-02-12 17:27:00,
2013-02-12 12:42:00,76.7,71.0,30.09,SSW,197,6.0,14.0,82,0.00,,,0.00,weatherlink.com 1.10,2013-02-12 17:42:00,
2013-02-12 12:57:00,77.4,71.0,30.07,SW,233,5.0,13.0,81,0.00,,,0.00,weatherlink.com 1.10,2013-02-12 17:57:00,
2013-02-12 13:12:00,76.2,71.0,30.06,SSE,165,11.0,17.0,84,0.00,,,0.00,weatherlink.com 1.10,2013-02-12 18:12:00,
2013-02-12 13:27:00,76.6,71.0,30.04,SSW,192,7.0,14.0,83,0.00,,,0.00,weatherlink.com 1.10,2013-02-12 18:27:00,
2013-02-12 13:42:00,76.8,71.0,30.03,SW,223,5.0,15.0,82,0.00,,,0.00,weatherlink.com 1.10,2013-02-12 18:42:00,
2013-02-12 13:58:00,77.5,71.0,30.02,SSW,207,8.0,14.0,81,0.00,,,0.00,weatherlink.com 1.10,2013-02-12 18:58:00,
2013-02-12 14:12:00,77.2,71.0,30.01,SSE,152,8.0,15.0,82,0.00,,,0.00,weatherlink.com 1.10,2013-02-12 19:12:00,
2013-02-12 14:27:00,77.0,71.0,30.00,SSW,207,2.0,17.0,82,0.00,,,0.00,weatherlink.com 1.10,2013-02-12 19:27:00,
2013-02-12 14:43:00,77.2,71.0,30.01,SSW,195,4.0,16.0,82,0.00,,,0.00,weatherlink.com 1.10,2013-02-12 19:43:00,
2013-02-12 14:58:00,77.2,71.0,30.00,SSW,210,11.0,19.0,82,0.00,,,0.00,weatherlink.com 1.10,2013-02-12 19:58:00,
2013-02-12 15:13:00,76.8,71.0,30.00,SW,233,4.0,14.0,83,0.00,,,0.00,weatherlink.com 1.10,2013-02-12 20:13:00,
2013-02-12 15:28:00,76.8,72.0,30.01,SSE,160,14.0,14.0,84,0.00,,,0.00,weatherlink.com 1.10,2013-02-12 20:28:00,
2013-02-12 15:43:00,76.6,72.0,30.01,SW,226,2.0,10.0,84,0.00,,,0.00,weatherlink.com 1.10,2013-02-12 20:43:00,
2013-02-12 15:58:00,75.9,72.0,29.99,SSW,205,3.0,12.0,86,0.00,,,0.00,weatherlink.com 1.10,2013-02-12 20:58:00,
2013-02-12 16:13:00,75.5,71.0,29.99,WSW,243,2.0,12.0,86,0.00,,,0.00,weatherlink.com 1.10,2013-02-12 21:13:00,
2013-02-12 16:28:00,75.0,71.0,30.00,South,186,7.0,13.0,87,0.00,,,0.00,weatherlink.com 1.10,2013-02-12 21:28:00,
2013-02-12 16:43:00,74.9,71.0,29.99,WSW,239,2.0,9.0,87,0.00,,,0.00,weatherlink.com 1.10,2013-02-12 21:43:00,
2013-02-12 16:58:00,74.5,71.0,29.99,SW,214,4.0,12.0,88,0.00,,,0.00,weatherlink.com 1.10,2013-02-12 21:58:00,
2013-02-12 17:13:00,73.7,71.0,29.99,WSW,256,2.0,10.0,90,0.00,,,0.00,weatherlink.com 1.10,2013-02-12 22:13:00,
2013-02-12 17:28:00,73.0,70.0,29.98,SW,229,3.0,9.0,91,0.00,,,0.00,weatherlink.com 1.10,2013-02-12 22:28:00,
2013-02-12 17:43:00,72.3,70.0,29.98,SW,229,2.0,9.0,92,0.00,,,0.00,weatherlink.com 1.10,2013-02-12 22:43:00,
2013-02-12 17:58:00,71.7,70.0,29.98,WSW,240,4.0,8.0,94,0.00,,,0.00,weatherlink.com 1.10,2013-02-12 22:58:00,
2013-02-12 18:14:00,71.1,70.0,29.98,SW,224,2.0,10.0,95,0.00,,,0.00,weatherlink.com 1.10,2013-02-12 23:14:00,
2013-02-12 18:32:00,70.6,70.0,29.98,SE,136,5.0,8.0,96,0.00,,,0.00,weatherlink.com 1.10,2013-02-12 23:32:00,
2013-02-12 18:52:00,70.3,69.0,29.98,SW,233,1.0,10.0,97,0.00,,,0.00,weatherlink.com 1.10,2013-02-12 23:52:00,
2013-02-12 19:10:00,70.3,69.0,29.98,SW,219,2.0,11.0,97,0.00,,,0.00,weatherlink.com 1.10,2013-02-13 00:10:00,
2013-02-12 19:28:00,70.3,69.0,29.98,SSW,195,3.0,8.0,97,0.00,,,0.00,weatherlink.com 1.10,2013-02-13 00:28:00,
2013-02-12 19:46:00,70.1,69.0,29.99,SW,228,1.0,8.0,97,0.00,,,0.00,weatherlink.com 1.10,2013-02-13 00:46:00,
2013-02-12 20:06:00,69.9,69.0,29.99,SE,136,4.0,10.0,98,0.00,,,0.00,weatherlink.com 1.10,2013-02-13 01:06:00,
2013-02-12 20:24:00,69.9,69.0,29.99,West,276,2.0,8.0,98,0.00,,,0.00,weatherlink.com 1.10,2013-02-13 01:24:00,
2013-02-12 20:42:00,69.7,69.0,30.00,SW,222,3.0,9.0,98,0.00,,,0.00,weatherlink.com 1.10,2013-02-13 01:42:00,
2013-02-12 20:58:00,69.7,69.0,30.00,SE,134,1.0,9.0,99,0.00,,,0.00,weatherlink.com 1.10,2013-02-13 01:58:00,
2013-02-12 21:13:00,69.6,69.0,30.00,SW,236,1.0,8.0,99,0.00,,,0.00,weatherlink.com 1.10,2013-02-13 02:13:00,
2013-02-12 21:28:00,69.4,69.0,30.00,WSW,246,2.0,9.0,100,0.00,,,0.00,weatherlink.com 1.10,2013-02-13 02:28:00,
2013-02-12 21:43:00,69.4,69.0,30.00,WSW,240,3.0,7.0,100,0.00,,,0.00,weatherlink.com 1.10,2013-02-13 02:43:00,
2013-02-12 21:58:00,69.3,69.0,30.00,WSW,251,1.0,8.0,100,0.00,,,0.00,weatherlink.com 1.10,2013-02-13 02:58:00,
2013-02-12 22:13:00,69.4,69.0,30.00,South,179,3.0,7.0,100,0.00,,,0.00,weatherlink.com 1.10,2013-02-13 03:13:00,
2013-02-12 22:28:00,69.3,69.0,30.00,WSW,249,1.0,7.0,100,0.00,,,0.00,weatherlink.com 1.10,2013-02-13 03:28:00,
2013-02-12 22:43:00,69.4,69.0,30.00,SSW,207,2.0,12.0,100,0.00,,,0.00,weatherlink.com 1.10,2013-02-13 03:43:00,
2013-02-12 22:58:00,69.3,69.0,30.00,SW,219,2.0,7.0,100,0.00,,,0.00,weatherlink.com 1.10,2013-02-13 03:58:00,
2013-02-12 23:13:00,69.2,69.0,30.00,West,260,1.0,7.0,100,0.00,,,0.00,weatherlink.com 1.10,2013-02-13 04:13:00,
2013-02-12 23:28:00,69.2,69.0,30.00,SW,235,1.0,11.0,100,0.00,,,0.00,weatherlink.com 1.10,2013-02-13 04:28:00,
2013-02-12 23:43:00,69.2,69.0,29.99,South,184,7.0,8.0,100,0.00,,,0.00,weatherlink.com 1.10,2013-02-13 04:43:00,
2013-02-12 23:58:00,69.2,69.0,29.99,SW,218,1.0,6.0,100,0.00,,,0.00,weatherlink.com 1.10,2013-02-13 04:58:00,